Time,TemperatureF,DewpointF,PressureIn,WindDirection,WindDirectionDegrees,WindSpeedMPH,WindSpeedGustMPH,Humidity,HourlyPrecipIn,Conditions,Clouds,dailyrainin,SoftwareType,DateUTC
2013-05-11 00:02:00,50.7,47.9,30.04,North,8,0.0,0.0,90,0.00,CLR,SKC,0.00,WeatherDisplay:10.37,2013-05-11 05:02:00,
2013-05-11 00:07:00,50.6,48.1,30.04,North,8,0.0,0.0,91,0.00,CLR,SKC,0.00,WeatherDisplay:10.37,2013-05-11 05:07:00,
2013-05-11 00:12:00,50.7,48.2,30.04,North,8,0.0,0.0,91,0.00,CLR,SKC,0.00,WeatherDisplay:10.37,2013-05-11 05:12:00,
2013-05-11 00:22:00,50.7,48.5,30.04,North,8,0.0,0.0,92,0.00,CLR,SKC,0.00,WeatherDisplay:10.37,2013-05-11 05:22:00,
2013-05-11 00:32:00,52.1,48.9,30.04,North,8,0.0,0.0,89,0.00,CLR,SKC,0.00,WeatherDisplay:10.37,2013-05-11 05:32:00,
2013-05-11 00:42:00,51.6,48.5,30.04,North,8,0.0,0.0,89,0.00,CLR,SKC,0.00,WeatherDisplay:10.37,2013-05-11 05:42:00,
2013-05-11 00:47:00,51.7,48.6,30.04,North,8,0.0,0.0,89,0.00,CLR,SKC,0.00,WeatherDisplay:10.37,2013-05-11 05:47:00,
2013-05-11 00:52:00,51.6,48.5,30.04,North,8,0.0,0.0,89,0.00,CLR,SKC,0.00,WeatherDisplay:10.37,2013-05-11 05:52:00,
2013-05-11 00:57:00,51.3,48.1,30.04,North,8,0.0,0.0,89,0.00,CLR,SKC,0.00,WeatherDisplay:10.37,2013-05-11 05:57:00,
2013-05-11 01:02:00,50.9,48.1,30.04,North,8,0.0,0.0,90,0.00,CLR,SKC,0.00,WeatherDisplay:10.37,2013-05-11 06:02:00,
2013-05-11 01:07:00,50.7,47.8,30.04,North,8,0.0,0.0,90,0.00,CLR,SKC,0.00,WeatherDisplay:10.37,2013-05-11 06:07:00,
2013-05-11 01:12:00,50.5,48.0,30.04,North,8,0.0,0.0,91,0.00,CLR,SKC,0.00,WeatherDisplay:10.37,2013-05-11 06:12:00,
2013-05-11 01:22:00,50.7,48.1,30.05,North,8,0.0,0.0,91,0.00,CLR,SKC,0.00,WeatherDisplay:10.37,2013-05-11 06:22:00,
2013-05-11 01:32:00,49.9,47.4,30.05,North,8,0.0,0.0,91,0.00,CLR,SKC,0.00,WeatherDisplay:10.37,2013-05-11 06:32:00,
2013-05-11 01:37:00,49.6,47.1,30.05,North,8,0.0,0.0,91,0.00,CLR,SKC,0.00,WeatherDisplay:10.37,2013-05-11 06:37:00,
2013-05-11 01:42:00,49.2,46.7,30.05,North,8,0.0,0.0,91,0.00,CLR,SKC,0.00,WeatherDisplay:10.37,2013-05-11 06:42:00,
2013-05-11 01:52:00,49.0,46.7,30.05,North,8,0.0,0.0,92,0.00,CLR,SKC,0.00,WeatherDisplay:10.37,2013-05-11 06:52:00,
2013-05-11 01:57:00,48.6,46.4,30.05,North,8,0.0,0.0,92,0.00,CLR,SKC,0.00,WeatherDisplay:10.37,2013-05-11 06:57:00,
2013-05-11 02:07:00,48.5,46.9,30.04,North,8,0.0,0.0,94,0.00,CLR,SKC,0.00,WeatherDisplay:10.37,2013-05-11 07:07:00,
2013-05-11 02:12:00,48.4,46.7,30.04,North,8,0.0,0.0,94,0.00,CLR,SKC,0.00,WeatherDisplay:10.37,2013-05-11 07:12:00,
2013-05-11 02:22:00,48.2,46.5,30.04,North,8,0.0,0.0,94,0.00,CLR,SKC,0.00,WeatherDisplay:10.37,2013-05-11 07:22:00,
2013-05-11 02:32:00,48.0,46.4,30.04,North,8,0.0,0.0,94,0.00,CLR,SKC,0.00,WeatherDisplay:10.37,2013-05-11 07:32:00,
2013-05-11 02:37:00,48.1,46.7,30.04,North,8,0.0,0.0,95,0.00,CLR,SKC,0.00,WeatherDisplay:10.37,2013-05-11 07:37:00,
2013-05-11 02:42:00,48.0,46.7,30.04,North,8,0.0,0.0,95,0.00,CLR,SKC,0.00,WeatherDisplay:10.37,2013-05-11 07:42:00,
2013-05-11 02:47:00,48.0,46.7,30.04,North,8,0.0,0.0,95,0.00,CLR,SKC,0.00,WeatherDisplay:10.37,2013-05-11 07:47:00,
2013-05-11 02:52:00,48.0,46.6,30.04,North,8,0.0,0.0,95,0.00,CLR,SKC,0.00,WeatherDisplay:10.37,2013-05-11 07:52:00,
2013-05-11 02:57:00,48.5,47.4,30.04,North,8,0.0,0.0,96,0.00,CLR,SKC,0.00,WeatherDisplay:10.37,2013-05-11 07:57:00,
2013-05-11 03:02:00,48.7,47.4,30.04,North,8,0.0,0.0,95,0.00,CLR,SKC,0.00,WeatherDisplay:10.37,2013-05-11 08:02:00,
2013-05-11 03:07:00,48.6,47.0,30.04,North,8,0.0,0.0,94,0.00,CLR,SKC,0.00,WeatherDisplay:10.37,2013-05-11 08:07:00,
2013-05-11 03:12:00,48.8,47.2,30.04,North,8,0.0,0.0,94,0.00,CLR,SKC,0.00,WeatherDisplay:10.37,2013-05-11 08:12:00,
2013-05-11 03:17:00,48.9,47.2,30.04,North,8,0.0,0.0,94,0.00,CLR,SKC,0.00,WeatherDisplay:10.37,2013-05-11 08:17:00,
2013-05-11 03:22:00,48.8,47.2,30.04,North,8,0.0,0.0,94,0.00,CLR,SKC,0.00,WeatherDisplay:10.37,2013-05-11 08:22:00,
2013-05-11 03:27:00,48.9,47.2,30.04,North,8,0.0,0.0,94,0.00,CLR,SKC,0.00,WeatherDisplay:10.37,2013-05-11 08:27:00,
2013-05-11 03:32:00,49.1,47.5,30.04,North,8,0.0,0.0,94,0.00,CLR,SKC,0.00,WeatherDisplay:10.37,2013-05-11 08:32:00,
2013-05-11 03:37:00,49.3,47.4,30.04,North,8,0.0,0.0,93,0.00,CLR,SKC,0.00,WeatherDisplay:10.37,2013-05-11 08:37:00,
2013-05-11 03:42:00,49.4,47.2,30.05,North,8,0.0,0.0,92,0.00,CLR,SKC,0.00,WeatherDisplay:10.37,2013-05-11 08:42:00,
2013-05-11 03:47:00,49.3,47.1,30.05,North,8,0.0,0.0,92,0.00,CLR,SKC,0.00,WeatherDisplay:10.37,2013-05-11 08:47:00,
2013-05-11 03:52:00,49.4,47.2,30.05,North,8,0.0,0.0,92,0.00,CLR,SKC,0.00,WeatherDisplay:10.37,2013-05-11 08:52:00,
2013-05-11 04:02:00,49.2,46.7,30.05,North,8,0.0,0.0,91,0.00,CLR,SKC,0.00,WeatherDisplay:10.37,2013-05-11 09:02:00,
2013-05-11 04:07:00,48.9,46.6,30.05,North,7,0.0,0.0,92,0.00,CLR,SKC,0.00,WeatherDisplay:10.37,2013-05-11 09:07:00,
2013-05-11 04:12:00,48.7,46.5,30.05,North,5,0.0,0.0,92,0.00,CLR,SKC,0.00,WeatherDisplay:10.37,2013-05-11 09:12:00,
2013-05-11 04:22:00,49.2,47.3,30.04,North,5,0.0,0.0,93,0.00,CLR,SKC,0.00,WeatherDisplay:10.37,2013-05-11 09:22:00,
2013-05-11 04:32:00,49.6,47.4,30.04,North,2,0.0,0.0,92,0.00,CLR,SKC,0.00,WeatherDisplay:10.37,2013-05-11 09:32:00,
2013-05-11 04:42:00,49.8,47.5,30.04,North,350,0.0,2.0,92,0.00,CLR,SKC,0.00,WeatherDisplay:10.37,2013-05-11 09:42:00,
2013-05-11 04:52:00,50.1,47.6,30.04,West,277,0.0,2.0,91,0.00,CLR,SKC,0.00,WeatherDisplay:10.37,2013-05-11 09:52:00,
2013-05-11 04:57:00,50.3,47.4,30.04,West,278,0.0,0.0,90,0.00,CLR,SKC,0.00,WeatherDisplay:10.37,2013-05-11 09:57:00,
2013-05-11 05:02:00,50.2,47.4,30.04,West,276,0.0,2.0,90,0.00,CLR,SKC,0.00,WeatherDisplay:10.37,2013-05-11 10:02:00,
2013-05-11 05:07:00,50.3,47.5,30.04,West,267,0.0,0.0,90,0.00,CLR,SKC,0.00,WeatherDisplay:10.37,2013-05-11 10:07:00,
2013-05-11 05:12:00,50.3,47.5,30.04,West,263,0.0,3.0,90,0.00,CLR,SKC,0.00,WeatherDisplay:10.37,2013-05-11 10:12:00,
2013-05-11 05:17:00,50.4,47.3,30.04,West,265,0.0,3.0,89,0.00,CLR,SKC,0.00,WeatherDisplay:10.37,2013-05-11 10:17:00,
2013-05-11 05:22:00,50.2,47.1,30.04,West,267,0.0,0.0,89,0.00,CLR,SKC,0.00,WeatherDisplay:10.37,2013-05-11 10:22:00,
2013-05-11 05:27:00,50.1,47.3,30.04,West,267,0.0,2.0,90,0.00,CLR,SKC,0.00,WeatherDisplay:10.37,2013-05-11 10:27:00,
2013-05-11 05:32:00,50.1,47.3,30.05,West,268,0.0,0.0,90,0.00,CLR,SKC,0.00,WeatherDisplay:10.37,2013-05-11 10:32:00,
2013-05-11 05:37:00,50.1,47.3,30.05,West,269,0.0,0.0,90,0.00,CLR,SKC,0.00,WeatherDisplay:10.37,2013-05-11 10:37:00,
2013-05-11 05:42:00,50.0,47.2,30.05,West,269,0.0,0.0,90,0.00,CLR,SKC,0.00,WeatherDisplay:10.37,2013-05-11 10:42:00,
2013-05-11 05:47:00,50.0,47.2,30.05,West,269,0.0,0.0,90,0.00,CLR,SKC,0.00,WeatherDisplay:10.37,2013-05-11 10:47:00,
2013-05-11 05:52:00,50.0,47.2,30.05,West,270,0.0,0.0,90,0.00,CLR,SKC,0.00,WeatherDisplay:10.37,2013-05-11 10:52:00,
2013-05-11 06:02:00,49.9,47.1,30.05,West,271,0.0,0.0,90,0.00,CLR,SKC,0.00,WeatherDisplay:10.37,2013-05-11 11:02:00,
2013-05-11 06:07:00,49.8,47.0,30.05,West,271,0.0,2.0,90,0.00,CLR,SKC,0.00,WeatherDisplay:10.37,2013-05-11 11:07:00,
2013-05-11 06:12:00,49.9,47.1,30.06,West,270,0.0,2.0,90,0.00,CLR,SKC,0.00,WeatherDisplay:10.37,2013-05-11 11:12:00,
2013-05-11 06:22:00,49.8,47.0,30.06,West,270,0.0,0.0,90,0.00,CLR,SKC,0.00,WeatherDisplay:10.37,2013-05-11 11:22:00,
2013-05-11 06:27:00,49.8,47.0,30.06,West,270,0.0,0.0,90,0.00,CLR,SKC,0.00,WeatherDisplay:10.37,2013-05-11 11:27:00,
2013-05-11 06:32:00,49.8,47.0,30.06,West,270,0.0,0.0,90,0.00,CLR,SKC,0.00,WeatherDisplay:10.37,2013-05-11 11:32:00,
2013-05-11 06:37:00,50.0,47.2,30.06,West,270,0.0,0.0,90,0.00,CLR,SKC,0.00,WeatherDisplay:10.37,2013-05-11 11:37:00,
2013-05-11 06:42:00,50.0,47.2,30.06,West,270,0.0,0.0,90,0.00,CLR,SKC,0.00,WeatherDisplay:10.37,2013-05-11 11:42:00,
2013-05-11 06:52:00,50.3,47.4,30.06,West,270,0.0,0.0,90,0.00,CLR,SKC,0.00,WeatherDisplay:10.37,2013-05-11 11:52:00,
2013-05-11 06:57:00,50.5,47.7,30.06,West,270,0.0,0.0,90,0.00,CLR,SKC,0.00,WeatherDisplay:10.37,2013-05-11 11:57:00,
2013-05-11 07:02:00,50.9,47.7,30.06,West,270,0.0,0.0,89,0.00,CLR,SKC,0.00,WeatherDisplay:10.37,2013-05-11 12:02:00,
2013-05-11 07:07:00,51.3,48.1,30.06,West,270,0.0,0.0,89,0.00,CLR,SKC,0.00,WeatherDisplay:10.37,2013-05-11 12:07:00,
2013-05-11 07:12:00,51.8,48.3,30.06,West,270,0.0,2.0,88,0.00,CLR,SKC,0.00,WeatherDisplay:10.37,2013-05-11 12:12:00,
2013-05-11 07:22:00,52.5,48.8,30.06,West,270,0.0,2.0,87,0.00,CLR,SKC,0.00,WeatherDisplay:10.37,2013-05-11 12:22:00,
2013-05-11 07:32:00,53.2,49.1,30.06,West,270,0.0,0.0,86,0.00,CLR,SKC,0.00,WeatherDisplay:10.37,2013-05-11 12:32:00,
2013-05-11 07:42:00,54.2,49.4,30.07,WNW,289,0.0,5.0,84,0.00,CLR,SKC,0.00,WeatherDisplay:10.37,2013-05-11 12:42:00,
2013-05-11 07:47:00,54.6,49.8,30.08,NW,306,0.0,5.0,84,0.00,CLR,SKC,0.00,WeatherDisplay:10.37,2013-05-11 12:47:00,
2013-05-11 07:52:00,55.0,50.2,30.08,NW,309,0.0,3.0,84,0.00,CLR,SKC,0.00,WeatherDisplay:10.37,2013-05-11 12:52:00,
2013-05-11 07:57:00,55.4,50.3,30.08,NW,323,0.0,3.0,83,0.00,CLR,SKC,0.00,WeatherDisplay:10.37,2013-05-11 12:57:00,
2013-05-11 08:07:00,56.3,50.9,30.09,NNW,342,3.0,11.0,82,0.00,CLR,SKC,0.00,WeatherDisplay:10.37,2013-05-11 13:07:00,
2013-05-11 08:12:00,56.6,50.8,30.09,NW,326,3.0,8.0,81,0.00,CLR,SKC,0.00,WeatherDisplay:10.37,2013-05-11 13:12:00,
2013-05-11 08:17:00,56.6,50.5,30.09,NNW,344,12.0,20.0,80,0.00,CLR,SKC,0.00,WeatherDisplay:10.37,2013-05-11 13:17:00,
2013-05-11 08:22:00,56.7,50.6,30.10,North,3,6.0,16.0,80,0.00,CLR,SKC,0.00,WeatherDisplay:10.37,2013-05-11 13:22:00,
2013-05-11 08:32:00,57.5,50.0,30.10,NNW,338,15.0,21.0,76,0.00,CLR,SKC,0.00,WeatherDisplay:10.37,2013-05-11 13:32:00,
2013-05-11 08:42:00,58.2,47.3,30.11,North,5,22.0,29.0,67,0.00,CLR,SKC,0.00,WeatherDisplay:10.37,2013-05-11 13:42:00,
2013-05-11 08:47:00,58.2,46.9,30.11,NNE,26,18.0,29.0,66,0.00,CLR,SKC,0.00,WeatherDisplay:10.37,2013-05-11 13:47:00,
2013-05-11 08:52:00,58.5,46.3,30.12,NNE,17,17.0,26.0,64,0.00,CLR,SKC,0.00,WeatherDisplay:10.37,2013-05-11 13:52:00,
2013-05-11 08:57:00,58.5,45.1,30.12,North,7,22.0,29.0,61,0.00,CLR,SKC,0.00,WeatherDisplay:10.37,2013-05-11 13:57:00,
2013-05-11 09:02:00,58.7,44.4,30.12,North,7,14.0,34.0,59,0.00,CLR,SKC,0.00,WeatherDisplay:10.37,2013-05-11 14:02:00,
2013-05-11 09:07:00,59.1,43.9,30.12,North,7,13.0,22.0,57,0.00,CLR,SKC,0.00,WeatherDisplay:10.37,2013-05-11 14:07:00,
2013-05-11 09:12:00,59.3,41.7,30.13,North,7,23.0,38.0,52,0.00,CLR,SKC,0.00,WeatherDisplay:10.37,2013-05-11 14:12:00,
2013-05-11 09:22:00,59.4,41.2,30.13,North,0,20.0,32.0,51,0.00,CLR,SKC,0.00,WeatherDisplay:10.37,2013-05-11 14:22:00,
2013-05-11 09:32:00,59.5,41.3,30.14,North,360,22.0,29.0,51,0.00,CLR,SKC,0.00,WeatherDisplay:10.37,2013-05-11 14:32:00,
2013-05-11 09:37:00,59.7,41.0,30.14,North,7,17.0,30.0,50,0.00,CLR,SKC,0.00,WeatherDisplay:10.37,2013-05-11 14:37:00,
2013-05-11 09:47:00,59.9,40.2,30.14,North,6,24.0,38.0,48,0.00,,SKC,0.00,WeatherDisplay:10.37,2013-05-11 14:47:00,
2013-05-11 09:52:00,59.8,36.7,30.15,North,5,32.0,36.0,42,0.00,,SKC,0.00,WeatherDisplay:10.37,2013-05-11 14:52:00,
2013-05-11 10:02:00,59.5,37.6,30.15,NNE,21,21.0,34.0,44,0.00,CLR,SKC,0.00,WeatherDisplay:10.37,2013-05-11 15:02:00,
2013-05-11 10:07:00,59.6,37.1,30.15,NNE,20,24.0,38.0,43,0.00,CLR,SKC,0.00,WeatherDisplay:10.37,2013-05-11 15:07:00,
2013-05-11 10:12:00,59.8,35.4,30.15,North,2,22.0,29.0,40,0.00,CLR,SKC,0.00,WeatherDisplay:10.37,2013-05-11 15:12:00,
2013-05-11 10:22:00,60.1,34.4,30.16,NNE,12,13.0,38.0,38,0.00,CLR,SKC,0.00,WeatherDisplay:10.37,2013-05-11 15:22:00,
2013-05-11 10:32:00,60.1,33.1,30.16,North,358,22.0,36.0,36,0.00,CLR,SKC,0.00,WeatherDisplay:10.37,2013-05-11 15:32:00,
2013-05-11 10:37:00,60.4,31.9,30.16,NNE,16,23.0,36.0,34,0.00,CLR,SKC,0.00,WeatherDisplay:10.37,2013-05-11 15:37:00,
2013-05-11 10:42:00,60.7,32.2,30.17,North,6,31.0,37.0,34,0.00,,SKC,0.00,WeatherDisplay:10.37,2013-05-11 15:42:00,
2013-05-11 10:52:00,60.7,32.1,30.17,North,1,24.0,38.0,34,0.00,CLR,SKC,0.00,WeatherDisplay:10.37,2013-05-11 15:52:00,
2013-05-11 11:02:00,61.0,31.7,30.18,North,6,30.0,37.0,33,0.00,,SKC,0.00,WeatherDisplay:10.37,2013-05-11 16:02:00,
2013-05-11 11:07:00,60.9,32.3,30.18,NNE,13,21.0,37.0,34,0.00,CLR,SKC,0.00,WeatherDisplay:10.37,2013-05-11 16:07:00,
2013-05-11 11:12:00,61.1,32.5,30.18,NNE,17,24.0,34.0,34,0.00,CLR,SKC,0.00,WeatherDisplay:10.37,2013-05-11 16:12:00,
2013-05-11 11:17:00,61.2,33.3,30.18,North,11,23.0,30.0,35,0.00,CLR,SKC,0.00,WeatherDisplay:10.37,2013-05-11 16:17:00,
2013-05-11 11:22:00,61.2,33.3,30.18,North,2,16.0,36.0,35,0.00,CLR,SKC,0.00,WeatherDisplay:10.37,2013-05-11 16:22:00,
2013-05-11 11:32:00,61.5,32.8,30.18,NNE,29,24.0,36.0,34,0.00,CLR,SKC,0.00,WeatherDisplay:10.37,2013-05-11 16:32:00,
2013-05-11 11:37:00,61.6,33.7,30.18,NNE,15,14.0,32.0,35,0.00,CLR,SKC,0.00,WeatherDisplay:10.37,2013-05-11 16:37:00,
2013-05-11 11:42:00,61.9,34.6,30.18,North,358,14.0,25.0,36,0.00,CLR,SKC,0.00,WeatherDisplay:10.37,2013-05-11 16:42:00,
2013-05-11 11:52:00,62.3,35.0,30.19,NNE,13,15.0,28.0,36,0.00,CLR,SKC,0.00,WeatherDisplay:10.37,2013-05-11 16:52:00,
2013-05-11 12:02:00,62.4,35.1,30.18,North,4,21.0,30.0,36,0.00,CLR,SKC,0.00,WeatherDisplay:10.37,2013-05-11 17:02:00,
2013-05-11 12:07:00,62.6,34.6,30.19,North,6,18.0,29.0,35,0.00,CLR,SKC,0.00,WeatherDisplay:10.37,2013-05-11 17:07:00,
2013-05-11 12:12:00,62.9,34.8,30.19,North,9,10.0,32.0,35,0.00,CLR,SKC,0.00,WeatherDisplay:10.37,2013-05-11 17:12:00,
2013-05-11 12:22:00,63.9,36.4,30.19,NNW,334,9.0,19.0,36,0.00,CLR,SKC,0.00,WeatherDisplay:10.37,2013-05-11 17:22:00,
2013-05-11 12:27:00,64.0,35.1,30.18,NNW,333,7.0,16.0,34,0.00,CLR,SKC,0.00,WeatherDisplay:10.37,2013-05-11 17:27:00,
2013-05-11 12:32:00,63.5,33.9,30.19,North,2,20.0,29.0,33,0.00,CLR,SKC,0.00,WeatherDisplay:10.37,2013-05-11 17:32:00,
2013-05-11 12:42:00,63.2,34.4,30.18,North,10,17.0,25.0,34,0.00,CLR,SKC,0.00,WeatherDisplay:10.37,2013-05-11 17:42:00,
2013-05-11 12:52:00,63.8,36.3,30.19,NNW,347,9.0,30.0,36,0.00,CLR,SKC,0.00,WeatherDisplay:10.37,2013-05-11 17:52:00,
2013-05-11 12:57:00,63.5,35.3,30.18,North,351,22.0,29.0,35,0.00,CLR,SKC,0.00,WeatherDisplay:10.37,2013-05-11 17:57:00,
2013-05-11 13:07:00,63.7,35.5,30.18,NW,323,9.0,26.0,35,0.00,CLR,SKC,0.00,WeatherDisplay:10.37,2013-05-11 18:07:00,
2013-05-11 13:12:00,64.2,36.0,30.18,NNW,339,10.0,29.0,35,0.00,CLR,SKC,0.00,WeatherDisplay:10.37,2013-05-11 18:12:00,
2013-05-11 13:22:00,63.9,35.0,30.18,North,349,18.0,32.0,34,0.00,CLR,SKC,0.00,WeatherDisplay:10.37,2013-05-11 18:22:00,
2013-05-11 13:32:00,64.4,36.1,30.18,North,353,10.0,20.0,35,0.00,CLR,SKC,0.00,WeatherDisplay:10.37,2013-05-11 18:32:00,
2013-05-11 13:42:00,64.9,37.3,30.18,NNW,328,8.0,26.0,36,0.00,CLR,SKC,0.00,WeatherDisplay:10.37,2013-05-11 18:42:00,
2013-05-11 13:52:00,65.3,33.9,30.18,NNW,344,15.0,30.0,31,0.00,CLR,SKC,0.00,WeatherDisplay:10.37,2013-05-11 18:52:00,
2013-05-11 13:57:00,65.4,34.8,30.18,North,358,14.0,29.0,32,0.00,CLR,SKC,0.00,WeatherDisplay:10.37,2013-05-11 18:57:00,
2013-05-11 14:02:00,65.2,32.1,30.18,North,352,14.0,30.0,29,0.00,CLR,SKC,0.00,WeatherDisplay:10.37,2013-05-11 19:02:00,
2013-05-11 14:07:00,65.0,32.0,30.18,North,359,20.0,32.0,29,0.00,CLR,SKC,0.00,WeatherDisplay:10.37,2013-05-11 19:07:00,
2013-05-11 14:12:00,65.1,32.9,30.18,NNW,348,16.0,34.0,30,0.00,CLR,SKC,0.00,WeatherDisplay:10.37,2013-05-11 19:12:00,
2013-05-11 14:22:00,65.8,33.5,30.18,NNW,340,7.0,24.0,30,0.00,CLR,SKC,0.00,WeatherDisplay:10.37,2013-05-11 19:22:00,
2013-05-11 14:32:00,65.9,31.9,30.18,North,353,9.0,26.0,28,0.00,CLR,SKC,0.00,WeatherDisplay:10.37,2013-05-11 19:32:00,
2013-05-11 14:37:00,66.1,34.5,30.18,NNW,346,7.0,24.0,31,0.00,CLR,SKC,0.00,WeatherDisplay:10.37,2013-05-11 19:37:00,
2013-05-11 14:42:00,65.7,31.7,30.18,North,353,9.0,24.0,28,0.00,CLR,SKC,0.00,WeatherDisplay:10.37,2013-05-11 19:42:00,
2013-05-11 14:52:00,66.3,33.0,30.18,NNW,327,3.0,18.0,29,0.00,CLR,SKC,0.00,WeatherDisplay:10.37,2013-05-11 19:52:00,
2013-05-11 15:02:00,65.6,30.7,30.19,North,353,18.0,30.0,27,0.00,CLR,SKC,0.00,WeatherDisplay:10.37,2013-05-11 20:02:00,
2013-05-11 15:07:00,65.4,30.5,30.19,North,357,22.0,26.0,27,0.00,CLR,SKC,0.00,WeatherDisplay:10.37,2013-05-11 20:07:00,
2013-05-11 15:12:00,65.3,31.3,30.19,North,359,17.0,38.0,28,0.00,CLR,SKC,0.00,WeatherDisplay:10.37,2013-05-11 20:12:00,
2013-05-11 15:17:00,65.5,29.7,30.19,North,4,22.0,29.0,26,0.00,CLR,SKC,0.00,WeatherDisplay:10.37,2013-05-11 20:17:00,
2013-05-11 15:22:00,65.3,31.3,30.19,North,5,7.0,32.0,28,0.00,CLR,SKC,0.00,WeatherDisplay:10.37,2013-05-11 20:22:00,
2013-05-11 15:32:00,66.0,31.0,30.18,North,357,15.0,29.0,27,0.00,CLR,SKC,0.00,WeatherDisplay:10.37,2013-05-11 20:32:00,
2013-05-11 15:42:00,66.3,31.3,30.18,NNW,339,7.0,21.0,27,0.00,CLR,SKC,0.00,WeatherDisplay:10.37,2013-05-11 20:42:00,
2013-05-11 15:52:00,66.0,31.1,30.18,NNW,337,12.0,21.0,27,0.00,CLR,SKC,0.00,WeatherDisplay:10.37,2013-05-11 20:52:00,
2013-05-11 15:57:00,66.1,30.2,30.18,North,8,15.0,22.0,26,0.00,CLR,SKC,0.00,WeatherDisplay:10.37,2013-05-11 20:57:00,
2013-05-11 16:02:00,65.8,30.8,30.18,North,355,13.0,26.0,27,0.00,CLR,SKC,0.00,WeatherDisplay:10.37,2013-05-11 21:02:00,
2013-05-11 16:07:00,66.1,31.1,30.18,NNW,341,9.0,18.0,27,0.00,CLR,SKC,0.00,WeatherDisplay:10.37,2013-05-11 21:07:00,
2013-05-11 16:12:00,66.3,31.3,30.18,NNW,339,7.0,15.0,27,0.00,CLR,SKC,0.00,WeatherDisplay:10.37,2013-05-11 21:12:00,
2013-05-11 16:17:00,66.2,31.2,30.17,NNW,332,14.0,26.0,27,0.00,CLR,SKC,0.00,WeatherDisplay:10.37,2013-05-11 21:17:00,
2013-05-11 16:22:00,66.1,30.2,30.17,NW,321,6.0,13.0,26,0.00,CLR,SKC,0.00,WeatherDisplay:10.37,2013-05-11 21:22:00,
2013-05-11 16:32:00,66.0,29.1,30.17,North,6,20.0,29.0,25,0.00,CLR,SKC,0.00,WeatherDisplay:10.37,2013-05-11 21:32:00,
2013-05-11 16:37:00,65.9,30.0,30.17,North,354,10.0,24.0,26,0.00,CLR,SKC,0.00,WeatherDisplay:10.37,2013-05-11 21:37:00,
2013-05-11 16:42:00,65.9,31.0,30.17,NNW,340,6.0,21.0,27,0.00,CLR,SKC,0.00,WeatherDisplay:10.37,2013-05-11 21:42:00,
2013-05-11 16:52:00,66.1,32.0,30.17,NNW,333,8.0,17.0,28,0.00,CLR,SKC,0.00,WeatherDisplay:10.37,2013-05-11 21:52:00,
2013-05-11 16:57:00,66.2,31.2,30.17,NNW,331,10.0,21.0,27,0.00,CLR,SKC,0.00,WeatherDisplay:10.37,2013-05-11 21:57:00,
2013-05-11 17:07:00,66.8,32.6,30.17,NW,326,5.0,12.0,28,0.00,CLR,SKC,0.00,WeatherDisplay:10.37,2013-05-11 22:07:00,
2013-05-11 17:12:00,66.9,31.8,30.17,NNW,333,3.0,18.0,27,0.00,CLR,SKC,0.00,WeatherDisplay:10.37,2013-05-11 22:12:00,
2013-05-11 17:17:00,66.8,31.7,30.17,North,2,10.0,18.0,27,0.00,CLR,SKC,0.00,WeatherDisplay:10.37,2013-05-11 22:17:00,
2013-05-11 17:22:00,66.7,31.6,30.17,North,3,10.0,22.0,27,0.00,CLR,SKC,0.00,WeatherDisplay:10.37,2013-05-11 22:22:00,
2013-05-11 17:32:00,66.1,31.2,30.17,North,352,5.0,18.0,27,0.00,CLR,SKC,0.00,WeatherDisplay:10.37,2013-05-11 22:32:00,
2013-05-11 17:37:00,66.4,31.4,30.17,NNW,327,7.0,20.0,27,0.00,CLR,SKC,0.00,WeatherDisplay:10.37,2013-05-11 22:37:00,
2013-05-11 17:42:00,66.0,30.1,30.17,North,1,10.0,32.0,26,0.00,CLR,SKC,0.00,WeatherDisplay:10.37,2013-05-11 22:42:00,
2013-05-11 17:52:00,66.2,30.3,30.17,NNW,339,9.0,24.0,26,0.00,CLR,SKC,0.00,WeatherDisplay:10.37,2013-05-11 22:52:00,
2013-05-11 18:02:00,65.8,29.9,30.17,NNW,347,13.0,28.0,26,0.00,CLR,SKC,0.00,WeatherDisplay:10.37,2013-05-11 23:02:00,
2013-05-11 18:07:00,65.6,30.7,30.17,NNW,346,3.0,13.0,27,0.00,CLR,SKC,0.00,WeatherDisplay:10.37,2013-05-11 23:07:00,
2013-05-11 18:12:00,65.4,30.5,30.17,NNW,344,6.0,16.0,27,0.00,CLR,SKC,0.00,WeatherDisplay:10.37,2013-05-11 23:12:00,
2013-05-11 18:22:00,65.0,31.1,30.17,NNW,331,6.0,18.0,28,0.00,CLR,SKC,0.00,WeatherDisplay:10.37,2013-05-11 23:22:00,
2013-05-11 18:32:00,64.3,28.7,30.17,NNW,345,9.0,18.0,26,0.00,CLR,SKC,0.00,WeatherDisplay:10.37,2013-05-11 23:32:00,
2013-05-11 18:37:00,64.2,29.5,30.17,NNW,341,8.0,20.0,27,0.00,CLR,SKC,0.00,WeatherDisplay:10.37,2013-05-11 23:37:00,
2013-05-11 18:42:00,64.1,30.3,30.17,NNW,335,6.0,10.0,28,0.00,CLR,SKC,0.00,WeatherDisplay:10.37,2013-05-11 23:42:00,
2013-05-11 18:52:00,63.9,30.1,30.17,North,0,14.0,28.0,28,0.00,CLR,SKC,0.00,WeatherDisplay:10.37,2013-05-11 23:52:00,
2013-05-11 19:02:00,63.5,29.8,30.17,NNW,342,8.0,19.0,28,0.00,CLR,SKC,0.00,WeatherDisplay:10.37,2013-05-12 00:02:00,
2013-05-11 19:12:00,63.0,29.4,30.17,North,351,13.0,30.0,28,0.00,CLR,SKC,0.00,WeatherDisplay:10.37,2013-05-12 00:12:00,
2013-05-11 19:22:00,62.7,29.1,30.17,North,350,8.0,15.0,28,0.00,CLR,SKC,0.00,WeatherDisplay:10.37,2013-05-12 00:22:00,
2013-05-11 19:32:00,62.3,28.8,30.17,NNW,331,9.0,22.0,28,0.00,CLR,SKC,0.00,WeatherDisplay:10.37,2013-05-12 00:32:00,
2013-05-11 19:37:00,62.1,27.7,30.18,North,5,18.0,29.0,27,0.00,CLR,SKC,0.00,WeatherDisplay:10.37,2013-05-12 00:37:00,
2013-05-11 19:42:00,61.9,27.5,30.18,North,7,9.0,21.0,27,0.00,CLR,SKC,0.00,WeatherDisplay:10.37,2013-05-12 00:42:00,
2013-05-11 19:47:00,61.6,28.2,30.18,NNW,345,7.0,16.0,28,0.00,CLR,SKC,0.00,WeatherDisplay:10.37,2013-05-12 00:47:00,
2013-05-11 19:52:00,61.4,28.0,30.18,NNW,342,16.0,26.0,28,0.00,CLR,SKC,0.00,WeatherDisplay:10.37,2013-05-12 00:52:00,
2013-05-11 20:02:00,60.8,28.3,30.18,NNW,341,5.0,12.0,29,0.00,CLR,SKC,0.00,WeatherDisplay:10.37,2013-05-12 01:02:00,
2013-05-11 20:07:00,60.6,28.2,30.18,NNW,341,9.0,16.0,29,0.00,CLR,SKC,0.00,WeatherDisplay:10.37,2013-05-12 01:07:00,
2013-05-11 20:12:00,60.3,27.9,30.18,NNW,329,6.0,18.0,29,0.00,CLR,SKC,0.00,WeatherDisplay:10.37,2013-05-12 01:12:00,
2013-05-11 20:22:00,59.9,28.4,30.19,North,351,7.0,13.0,30,0.00,CLR,SKC,0.00,WeatherDisplay:10.37,2013-05-12 01:22:00,
2013-05-11 20:27:00,59.7,28.1,30.19,NNW,342,1.0,8.0,30,0.00,CLR,SKC,0.00,WeatherDisplay:10.37,2013-05-12 01:27:00,
2013-05-11 20:32:00,59.3,29.4,30.19,NNW,333,0.0,7.0,32,0.00,CLR,SKC,0.00,WeatherDisplay:10.37,2013-05-12 01:32:00,
2013-05-11 20:37:00,58.8,28.9,30.19,North,358,2.0,3.0,32,0.00,CLR,SKC,0.00,WeatherDisplay:10.37,2013-05-12 01:37:00,
2013-05-11 20:42:00,58.3,29.3,30.19,North,350,1.0,5.0,33,0.00,CLR,SKC,0.00,WeatherDisplay:10.37,2013-05-12 01:42:00,
2013-05-11 20:47:00,57.9,29.7,30.19,NNW,336,0.0,3.0,34,0.00,CLR,SKC,0.00,WeatherDisplay:10.37,2013-05-12 01:47:00,
2013-05-11 20:52:00,57.5,29.3,30.20,North,5,0.0,2.0,34,0.00,CLR,SKC,0.00,WeatherDisplay:10.37,2013-05-12 01:52:00,
2013-05-11 20:57:00,57.1,29.6,30.20,North,357,0.0,2.0,35,0.00,CLR,SKC,0.00,WeatherDisplay:10.37,2013-05-12 01:57:00,
2013-05-11 21:02:00,56.8,29.4,30.20,NNW,348,0.0,2.0,35,0.00,CLR,SKC,0.00,WeatherDisplay:10.37,2013-05-12 02:02:00,
2013-05-11 21:07:00,56.6,29.9,30.20,North,7,0.0,3.0,36,0.00,CLR,SKC,0.00,WeatherDisplay:10.37,2013-05-12 02:07:00,
2013-05-11 21:12:00,56.2,29.6,30.20,NNE,24,0.0,0.0,36,0.00,CLR,SKC,0.00,WeatherDisplay:10.37,2013-05-12 02:12:00,
2013-05-11 21:17:00,55.9,29.9,30.21,NNE,24,0.0,0.0,37,0.00,CLR,SKC,0.00,WeatherDisplay:10.37,2013-05-12 02:17:00,
2013-05-11 21:22:00,55.6,29.7,30.21,North,1,0.0,2.0,37,0.00,CLR,SKC,0.00,WeatherDisplay:10.37,2013-05-12 02:22:00,
2013-05-11 21:27:00,55.2,30.0,30.21,NW,324,0.0,0.0,38,0.00,CLR,SKC,0.00,WeatherDisplay:10.37,2013-05-12 02:27:00,
2013-05-11 21:32:00,54.8,29.6,30.21,NW,324,0.0,0.0,38,0.00,CLR,SKC,0.00,WeatherDisplay:10.37,2013-05-12 02:32:00,
2013-05-11 21:42:00,54.2,30.4,30.22,NW,322,0.0,0.0,40,0.00,CLR,SKC,0.00,WeatherDisplay:10.37,2013-05-12 02:42:00,
2013-05-11 21:47:00,54.0,30.2,30.22,NW,324,0.0,3.0,40,0.00,CLR,SKC,0.00,WeatherDisplay:10.37,2013-05-12 02:47:00,
2013-05-11 21:52:00,54.0,30.2,30.22,North,352,0.0,3.0,40,0.00,CLR,SKC,0.00,WeatherDisplay:10.37,2013-05-12 02:52:00,
2013-05-11 22:02:00,53.7,30.0,30.23,North,359,0.0,0.0,40,0.00,CLR,SKC,0.00,WeatherDisplay:10.37,2013-05-12 03:02:00,
2013-05-11 22:07:00,53.5,30.3,30.23,North,359,0.0,2.0,41,0.00,CLR,SKC,0.00,WeatherDisplay:10.37,2013-05-12 03:07:00,
2013-05-11 22:12:00,53.3,30.7,30.23,North,360,0.0,1.0,42,0.00,CLR,SKC,0.00,WeatherDisplay:10.37,2013-05-12 03:12:00,
2013-05-11 22:22:00,52.7,30.8,30.24,NNW,337,0.0,1.0,43,0.00,CLR,SKC,0.00,WeatherDisplay:10.37,2013-05-12 03:22:00,
2013-05-11 22:32:00,52.5,30.6,30.24,NNW,337,0.0,1.0,43,0.00,CLR,SKC,0.00,WeatherDisplay:10.37,2013-05-12 03:32:00,
2013-05-11 22:42:00,52.0,30.7,30.24,NNW,345,0.0,0.0,44,0.00,CLR,SKC,0.00,WeatherDisplay:10.37,2013-05-12 03:42:00,
2013-05-11 22:47:00,51.8,30.5,30.23,NNW,345,0.0,2.0,44,0.00,CLR,SKC,0.00,WeatherDisplay:10.37,2013-05-12 03:47:00,
2013-05-11 22:52:00,51.5,30.3,30.24,NNW,345,0.0,2.0,44,0.00,CLR,SKC,0.00,WeatherDisplay:10.37,2013-05-12 03:52:00,
2013-05-11 23:02:00,51.4,30.8,30.24,North,356,0.0,2.0,45,0.00,CLR,SKC,0.00,WeatherDisplay:10.37,2013-05-12 04:02:00,
2013-05-11 23:07:00,51.3,31.2,30.24,NNE,21,0.0,2.0,46,0.00,CLR,SKC,0.00,WeatherDisplay:10.37,2013-05-12 04:07:00,
2013-05-11 23:12:00,50.9,30.9,30.24,NNE,22,0.0,2.0,46,0.00,CLR,SKC,0.00,WeatherDisplay:10.37,2013-05-12 04:12:00,
2013-05-11 23:17:00,50.7,31.2,30.24,NNE,21,0.0,2.0,47,0.00,CLR,SKC,0.00,WeatherDisplay:10.37,2013-05-12 04:17:00,
2013-05-11 23:22:00,50.4,30.9,30.24,NNE,22,0.0,0.0,47,0.00,CLR,SKC,0.00,WeatherDisplay:10.37,2013-05-12 04:22:00,
2013-05-11 23:27:00,50.1,31.1,30.24,NNE,22,0.0,0.0,48,0.00,CLR,SKC,0.00,WeatherDisplay:10.37,2013-05-12 04:27:00,
2013-05-11 23:32:00,49.8,31.4,30.24,NNE,22,0.0,0.0,49,0.00,CLR,SKC,0.00,WeatherDisplay:10.37,2013-05-12 04:32:00,
2013-05-11 23:37:00,49.6,31.2,30.24,NNE,22,0.0,0.0,49,0.00,CLR,SKC,0.00,WeatherDisplay:10.37,2013-05-12 04:37:00,
2013-05-11 23:42:00,49.4,31.0,30.24,NNE,22,0.0,2.0,49,0.00,CLR,SKC,0.00,WeatherDisplay:10.37,2013-05-12 04:42:00,
2013-05-11 23:52:00,48.8,30.9,30.24,NNE,22,0.0,0.0,50,0.00,CLR,SKC,0.00,WeatherDisplay:10.37,2013-05-12 04:52:00,